Accueil
METAR-TAF:

METAR-TAF

Aéroports :

Yeovilton, Angleterre

latitude: 51-00N, longitude: 002-38W, altitude: 23 m

Observation

Le bulletin a été fait il y a 58 minutes, à 15:50 UTC
Vent 13 kt de sud-est
Température 23°C
Humidité 73%
Pression 1015 hPa
Visibilité 10 km ou plus
Quelques nuages à une hauteur de 3000 ft
Nuages épars à une hauteur de 4000 ft

METAR: EGDY 221550Z 14013KT 9999 FEW030 SCT040 23/18 Q1015 BLU NOSIG

Heure: 17:48 (16:48 UTC)

Prévision

Le bulletin a été fait il y a 2 heures et 29 minutes, à 14:19 UTC
Prévision valable du 22 à 15 UTC au 22 à 24 UTC
Vent 10 kt de est/sud-est
Visibilité 10 km ou plus
Nuages épars à une hauteur de 3000 ft
Evoluant progressivement
du 22 à 22 UTC au 22 à 24 UTC
Nuages fragmentés à une hauteur de 2000 ft

TAF: EGDY 221419Z 2215/2224 12010KT 9999 SCT030 BECMG 2222/2224 BKN020

Observations et prévisions météorologiques de plus de 4000 aéroports (messages METAR et TAF).

Les stations disponibles sont représentées par des disques jaunes et rouges sur la carte.

Passer la souris dessus pour voir le nom de la station.

Cliquer dessus pour voir les observations et prévisions météorologiques.

Pour changer de carte: cliquez sur les boutons verts avec une croix noire pour zoomer, sur le bouton vert avec un tiret pour effectuer un zoom arrière, ou sur les flèches vertes pour les cartes adjacentes.


METAR-TAF: